Thursday, August 16, 2018, 12:00 AM EDT
Back to Local

KDUJ, Du Bois-jefferson County

Location: Reynoldsville, PA, United States Lat: 41.183
Local Time: 12:00 AM EDT ( 4:00 GMT) Lon: -78.883
Time Zone: US/Eastern Elev: 1820 ft

Show me the last for .
Show Decoded

2018-08-15 22:53 METAR KDUJ 160253Z AUTO 22003KT 5SM BR CLR 21/19 A3010 RMK AO2 SLP182 T02110194
                 50011 =
2018-08-15 21:53 METAR KDUJ 160153Z AUTO 00000KT 6SM BR CLR 21/19 A3010 RMK AO2 SLP183 T02110194
                 =
2018-08-15 20:53 METAR KDUJ 160053Z AUTO 23003KT 7SM CLR 21/20 A3009 RMK AO2 SLP178 T02110200 =
2018-08-15 19:53 METAR KDUJ 152353Z AUTO 26004KT 7SM CLR 23/19 A3007 RMK AO2 SLP172 T02280194
                 10278 20228 53002 =
2018-08-15 18:53 METAR KDUJ 152253Z AUTO 26005KT 7SM CLR 24/19 A3006 RMK AO2 SLP170 T02440194 =
2018-08-15 17:53 METAR KDUJ 152153Z AUTO 26007KT 7SM CLR 26/19 A3007 RMK AO2 SLP170 T02560194 =
2018-08-15 16:53 METAR KDUJ 152053Z AUTO VRB05KT 8SM FEW038 27/19 A3006 RMK AO2 SLP168 T02670194
                 58003 =
2018-08-15 15:53 METAR KDUJ 151953Z AUTO 27011KT 8SM FEW045 SCT055 27/19 A3007 RMK AO2 SLP170
                 T02670194 =
2018-08-15 14:53 METAR KDUJ 151853Z AUTO 27010KT 9SM SCT065 27/19 A3007 RMK AO2 SLP170 T02720194
                 =
2018-08-15 13:53 METAR KDUJ 151753Z AUTO 25009KT 8SM CLR 26/19 A3007 RMK AO2 SLP171 T02610194
                 10267 20167 56001 =
2018-08-15 12:53 METAR KDUJ 151653Z AUTO 23008KT 8SM CLR 26/21 A3007 RMK AO2 SLP171 T02610206 =
2018-08-15 11:53 METAR KDUJ 151553Z AUTO 26007KT 7SM CLR 24/21 A3007 RMK AO2 SLP172 T02440206 =
2018-08-15 11:00 METAR KDUJ 151500Z AUTO 25007KT 5SM BR SCT006 22/20 A3008 RMK AO2 T02220200 =
2018-08-15 10:53 METAR KDUJ 151453Z AUTO 26007KT 4SM BR BKN006 22/20 A3008 RMK AO2 SLP175
                 T02170200 53006 =
2018-08-15 09:53 METAR KDUJ 151353Z AUTO 4SM BR BKN005 19/19 A3006 RMK AO2 SLP172 T01940189 PWINO
                 $ =
2018-08-15 09:48 METAR KDUJ 151348Z AUTO 27006KT 3SM BR BKN004 19/19 A3006 RMK AO2 =
2018-08-15 09:28 METAR KDUJ 151328Z AUTO 24006KT 3SM BR SCT003 19/19 A3006 RMK AO2 T01890189 =
2018-08-15 09:08 METAR KDUJ 151308Z AUTO 24006KT 2 1/2SM BR BKN002 18/18 A3006 RMK AO2 T01830183
                 =
2018-08-15 09:00 METAR KDUJ 151300Z AUTO 25007KT 1 3/4SM BR BKN002 18/18 A3006 RMK AO2 T01830183
                 =
2018-08-15 08:53 METAR KDUJ 151253Z AUTO 25006KT 1SM BR OVC001 18/18 A3006 RMK AO2 SLP169
                 T01780178 =
2018-08-15 08:41 METAR KDUJ 151241Z AUTO 24005KT 1/2SM FG OVC001 18/18 A3006 RMK AO2 T01780178 $
                 =
2018-08-15 07:53 METAR KDUJ 151153Z AUTO 22003KT M1/4SM FG VV002 17/17 A3005 RMK AO2 SLP166 70008
                 T01670167 10167 20150 51012 $ =
2018-08-15 06:53 METAR KDUJ 151053Z AUTO 00000KT M1/4SM FG VV002 16/16 A3004 RMK AO2 SLP165
                 T01560156 $ =
2018-08-15 05:53 METAR KDUJ 150953Z AUTO 00000KT 1/4SM FG VV002 16/16 A3003 RMK AO2 SLP159
                 T01560156 $ =
2018-08-15 04:53 METAR KDUJ 150853Z AUTO 25004KT M1/4SM FG VV002 16/16 A3001 RMK AO2 SLP153
                 T01610161 56001 $ =
2018-08-15 03:53 METAR KDUJ 150753Z AUTO 00000KT 1/4SM FG VV002 16/16 A3002 RMK AO2 SLP155
                 T01610161 $ =
2018-08-15 03:33 METAR KDUJ 150733Z AUTO 00000KT 1/4SM FG VV002 17/17 A3001 RMK AO2 T01670167 $ =
2018-08-15 03:16 METAR KDUJ 150716Z AUTO 24004KT 3/4SM BR VV004 17/17 A3001 RMK AO2 T01670167 $ =
2018-08-15 02:59 METAR KDUJ 150659Z AUTO 23004KT 1SM BR CLR 17/17 A3001 RMK AO2 T01670167 $ =
2018-08-15 02:53 METAR KDUJ 150653Z AUTO 23004KT 1SM BR VV004 17/17 A3001 RMK AO2 SLP153
                 T01670167 $ =
2018-08-15 02:46 METAR KDUJ 150646Z AUTO 24005KT 1 1/2SM BR CLR 17/17 A3001 RMK AO2 T01670167 $ =
2018-08-15 02:34 METAR KDUJ 150634Z AUTO 23005KT 1/2SM FG CLR 17/17 A3001 RMK AO2 T01670167 $ =
2018-08-15 01:53 METAR KDUJ 150553Z AUTO 00000KT 1 3/4SM BR SCT003 17/17 A3002 RMK AO2 SLP156
                 T01670167 10206 20167 53003 $ =
2018-08-15 01:46 METAR KDUJ 150546Z AUTO 23003KT 1SM BR VV003 17/17 A3002 RMK AO2 T01670167 $ =
2018-08-15 01:35 METAR KDUJ 150535Z AUTO 23003KT 1/4SM FG VV003 17/17 A3002 RMK AO2 T01670167 $ =
2018-08-15 01:26 METAR KDUJ 150526Z AUTO 23003KT 1/2SM FG VV003 17/17 A3002 RMK AO2 T01720172 $ =
2018-08-15 01:19 METAR KDUJ 150519Z AUTO 00000KT 1SM BR VV003 17/17 A3001 RMK AO2 T01720172 $ =
2018-08-15 00:53 METAR KDUJ 150453Z AUTO 22003KT 1/4SM FG VV002 17/17 A3001 RMK AO2 SLP154
                 T01720172 402280167 $ =

Support USWX by starting your Amazon purchase here.